Homer, North Dakota
Current Conditions -  °F | °C
As of 4:56 PM on Monday 20 Oct 2014 (Local Time) from KJMS Reporting Station
Clear Clear  
Wind Chill: 68°   Ceiling: Unl
Heat Index: 68°   Visibility: 10mi
Dew Point: 38°   Wind: 6mph
Humidity: 33%   Direction: 130°SE
Pressure: 29.99"   Gusts: NA
Location:  46.8494°N, 98.7424°W
Report Text: KJMS 202156Z AUTO 13005KT 10SM CLR 20/03 A2999 RMK AO2 SLP161 T02000033
Loading
Personal Weather Stations






























Interactive Weather Map
Tropical Storm Tracking
New forecast layout! Learn more

10-Day Weather Forecast

Advertisements
Track Severe Weather on mobile